sensor_id;sensor_type;location;lat;lon;timestamp;P1;durP1;ratioP1;P2;durP2;ratioP2
72422;SDS011;60413;55.658;37.498;2023-03-23T00:08:03;4.28;;;2.33;;
72422;SDS011;60413;55.658;37.498;2023-03-23T00:18:33;7.72;;;3.58;;
72422;SDS011;60413;55.658;37.498;2023-03-23T00:24:26;9.18;;;3.45;;
72422;SDS011;60413;55.658;37.498;2023-03-23T00:28:50;9.00;;;4.68;;
72422;SDS011;60413;55.658;37.498;2023-03-23T00:50:36;5.82;;;2.50;;
72422;SDS011;60413;55.658;37.498;2023-03-23T01:15:43;5.47;;;2.55;;
72422;SDS011;60413;55.658;37.498;2023-03-23T01:22:34;4.57;;;2.10;;
72422;SDS011;60413;55.658;37.498;2023-03-23T01:26:36;5.18;;;2.63;;
72422;SDS011;60413;55.658;37.498;2023-03-23T01:47:36;5.60;;;2.70;;
72422;SDS011;60413;55.658;37.498;2023-03-23T01:50:24;7.88;;;2.95;;
72422;SDS011;60413;55.658;37.498;2023-03-23T01:53:28;10.07;;;2.78;;
72422;SDS011;60413;55.658;37.498;2023-03-23T01:56:36;4.78;;;2.40;;
72422;SDS011;60413;55.658;37.498;2023-03-23T02:04:56;6.75;;;2.80;;
72422;SDS011;60413;55.658;37.498;2023-03-23T02:32:26;4.55;;;2.63;;
72422;SDS011;60413;55.658;37.498;2023-03-23T02:42:18;7.00;;;3.33;;
72422;SDS011;60413;55.658;37.498;2023-03-23T02:45:55;6.13;;;2.95;;
72422;SDS011;60413;55.658;37.498;2023-03-23T02:48:35;7.07;;;3.20;;
72422;SDS011;60413;55.658;37.498;2023-03-23T02:51:13;6.25;;;2.75;;
72422;SDS011;60413;55.658;37.498;2023-03-23T02:54:16;4.93;;;2.33;;
72422;SDS011;60413;55.658;37.498;2023-03-23T02:57:38;5.90;;;2.60;;
72422;SDS011;60413;55.658;37.498;2023-03-23T03:00:28;5.07;;;2.40;;
72422;SDS011;60413;55.658;37.498;2023-03-23T03:03:39;6.45;;;2.78;;
72422;SDS011;60413;55.658;37.498;2023-03-23T03:16:05;5.25;;;2.35;;
72422;SDS011;60413;55.658;37.498;2023-03-23T03:21:58;6.65;;;2.70;;
72422;SDS011;60413;55.658;37.498;2023-03-23T03:24:41;7.50;;;2.80;;
72422;SDS011;60413;55.658;37.498;2023-03-23T03:27:31;7.53;;;2.97;;
72422;SDS011;60413;55.658;37.498;2023-03-23T03:30:15;5.70;;;2.63;;
72422;SDS011;60413;55.658;37.498;2023-03-23T03:33:02;6.03;;;2.88;;
72422;SDS011;60413;55.658;37.498;2023-03-23T03:39:05;5.60;;;2.92;;
72422;SDS011;60413;55.658;37.498;2023-03-23T03:41:36;6.88;;;3.20;;
72422;SDS011;60413;55.658;37.498;2023-03-23T03:44:08;7.72;;;2.90;;
72422;SDS011;60413;55.658;37.498;2023-03-23T03:46:40;6.85;;;3.13;;
72422;SDS011;60413;55.658;37.498;2023-03-23T03:49:10;6.10;;;3.10;;
72422;SDS011;60413;55.658;37.498;2023-03-23T03:51:45;7.47;;;3.20;;
72422;SDS011;60413;55.658;37.498;2023-03-23T03:54:18;7.85;;;3.25;;
72422;SDS011;60413;55.658;37.498;2023-03-23T03:57:04;6.88;;;2.80;;
72422;SDS011;60413;55.658;37.498;2023-03-23T04:00:14;6.82;;;2.88;;
72422;SDS011;60413;55.658;37.498;2023-03-23T04:03:37;7.60;;;3.25;;
72422;SDS011;60413;55.658;37.498;2023-03-23T04:06:23;8.23;;;3.88;;
72422;SDS011;60413;55.658;37.498;2023-03-23T04:09:36;7.97;;;3.92;;
72422;SDS011;60413;55.658;37.498;2023-03-23T04:31:24;8.75;;;4.00;;
72422;SDS011;60413;55.658;37.498;2023-03-23T04:37:45;7.93;;;3.83;;
72422;SDS011;60413;55.658;37.498;2023-03-23T04:40:20;7.53;;;3.30;;
72422;SDS011;60413;55.658;37.498;2023-03-23T04:43:13;8.70;;;4.20;;
72422;SDS011;60413;55.658;37.498;2023-03-23T04:46:38;15.48;;;6.80;;
72422;SDS011;60413;55.658;37.498;2023-03-23T04:52:36;9.05;;;4.93;;
72422;SDS011;60413;55.658;37.498;2023-03-23T04:55:37;11.13;;;4.50;;
72422;SDS011;60413;55.658;37.498;2023-03-23T04:58:30;7.50;;;4.15;;
72422;SDS011;60413;55.658;37.498;2023-03-23T05:01:29;10.25;;;4.22;;
72422;SDS011;60413;55.658;37.498;2023-03-23T05:04:36;11.35;;;4.55;;
72422;SDS011;60413;55.658;37.498;2023-03-23T05:07:53;12.35;;;4.80;;
72422;SDS011;60413;55.658;37.498;2023-03-23T05:10:57;7.68;;;4.38;;
72422;SDS011;60413;55.658;37.498;2023-03-23T05:13:46;7.57;;;4.05;;
72422;SDS011;60413;55.658;37.498;2023-03-23T05:16:48;7.88;;;4.38;;
72422;SDS011;60413;55.658;37.498;2023-03-23T05:20:17;7.57;;;4.60;;
72422;SDS011;60413;55.658;37.498;2023-03-23T05:23:21;10.30;;;4.95;;
72422;SDS011;60413;55.658;37.498;2023-03-23T05:26:20;10.27;;;4.72;;
72422;SDS011;60413;55.658;37.498;2023-03-23T05:29:23;8.82;;;4.82;;
72422;SDS011;60413;55.658;37.498;2023-03-23T05:32:34;8.15;;;4.72;;
72422;SDS011;60413;55.658;37.498;2023-03-23T05:35:38;9.10;;;4.60;;
72422;SDS011;60413;55.658;37.498;2023-03-23T05:39:04;7.03;;;4.10;;
72422;SDS011;60413;55.658;37.498;2023-03-23T05:42:34;8.52;;;4.25;;
72422;SDS011;60413;55.658;37.498;2023-03-23T05:45:35;12.52;;;5.40;;
72422;SDS011;60413;55.658;37.498;2023-03-23T05:48:31;9.18;;;4.40;;
72422;SDS011;60413;55.658;37.498;2023-03-23T05:51:31;7.65;;;4.78;;
72422;SDS011;60413;55.658;37.498;2023-03-23T05:54:55;8.93;;;4.70;;
72422;SDS011;60413;55.658;37.498;2023-03-23T05:57:58;10.75;;;4.90;;
72422;SDS011;60413;55.658;37.498;2023-03-23T06:00:48;11.73;;;5.30;;
72422;SDS011;60413;55.658;37.498;2023-03-23T06:12:52;10.65;;;6.30;;
